Time;durP1;ratioP1;P1;durP2;ratioP2;P2;SDS_P1;SDS_P2;PMS_P1;PMS_P2;Temp;Humidity;BMP_temperature;BMP_pressure;BME280_temperature;BME280_humidity;BME280_pressure;Samples;Min_cycle;Max_cycle;Signal;HPM_P1;HPM_P2
2021/05/12 00:02:21;;;;;;;0.00;0.00;;;;;;;;;;5060967;28;20215;-68
2021/05/12 00:04:48;;;;;;;0.00;0.00;;;;;;;;;;5060867;28;20205;-69
2021/05/12 00:07:14;;;;;;;0.30;0.30;;;;;;;;;;5057292;28;20182;-68
2021/05/12 00:09:41;;;;;;;0.00;0.00;;;;;;;;;;5053922;28;20729;-68
2021/05/12 00:12:08;;;;;;;2.27;1.10;;;;;;;;;;5055554;28;20182;-68
2021/05/12 00:14:38;;;;;;;0.67;0.30;;;;;;;;;;5052883;28;20212;-68
2021/05/12 00:17:05;;;;;;;1.20;1.13;;;;;;;;;;5055323;28;20934;-68
2021/05/12 00:19:35;;;;;;;0.10;0.10;;;;;;;;;;5035360;22;20244;-69
2021/05/12 00:27:04;;;;;;;0.00;0.00;;;;;;;;;;5040972;28;20229;-66
2021/05/12 00:29:31;;;;;;;2.90;0.47;;;;;;;;;;5047489;28;20847;-74
2021/05/12 00:31:58;;;;;;;0.00;0.00;;;;;;;;;;5039171;28;20523;-66
2021/05/12 00:34:25;;;;;;;1.40;0.57;;;;;;;;;;5046182;28;20279;-67
2021/05/12 00:36:52;;;;;;;0.00;0.00;;;;;;;;;;5046636;28;20233;-67
2021/05/12 00:39:18;;;;;;;0.10;0.10;;;;;;;;;;5040426;28;20186;-67
2021/05/12 00:41:50;;;;;;;0.00;0.00;;;;;;;;;;5047013;28;20791;-67
2021/05/12 00:44:18;;;;;;;0.00;0.00;;;;;;;;;;5038081;28;20199;-65
2021/05/12 00:46:46;;;;;;;1.47;0.40;;;;;;;;;;5045615;28;20922;-74
2021/05/12 00:49:13;;;;;;;0.00;0.00;;;;;;;;;;5047318;28;20401;-74
2021/05/12 00:51:40;;;;;;;3.93;3.60;;;;;;;;;;5046016;28;20184;-66
2021/05/12 00:54:07;;;;;;;0.00;0.00;;;;;;;;;;5045383;28;20434;-67
2021/05/12 00:56:39;;;;;;;0.20;0.10;;;;;;;;;;5022195;28;20240;-67
2021/05/12 00:59:07;;;;;;;0.33;0.30;;;;;;;;;;5044051;28;20196;-66
2021/05/12 01:01:34;;;;;;;0.20;0.20;;;;;;;;;;5039467;28;20192;-67
2021/05/12 01:04:01;;;;;;;0.00;0.00;;;;;;;;;;5037773;28;20190;-68
2021/05/12 01:06:29;;;;;;;0.00;0.00;;;;;;;;;;5017904;28;20202;-67
2021/05/12 01:08:56;;;;;;;2.57;0.27;;;;;;;;;;5036355;28;20200;-70
2021/05/12 01:11:23;;;;;;;0.10;0.10;;;;;;;;;;5036667;28;20217;-67
2021/05/12 01:13:50;;;;;;;0.37;0.37;;;;;;;;;;5035580;28;20393;-67
2021/05/12 01:16:19;;;;;;;0.00;0.00;;;;;;;;;;5032478;28;20244;-67
2021/05/12 01:18:45;;;;;;;0.43;0.40;;;;;;;;;;5032396;28;20191;-67
2021/05/12 01:21:13;;;;;;;0.00;0.00;;;;;;;;;;5034993;28;20178;-70
2021/05/12 01:23:43;;;;;;;0.00;0.00;;;;;;;;;;5019225;28;20182;-66
2021/05/12 01:26:11;;;;;;;0.50;0.40;;;;;;;;;;5033760;28;20345;-67
2021/05/12 01:28:39;;;;;;;0.13;0.13;;;;;;;;;;5033810;28;20195;-66
2021/05/12 01:31:26;;;;;;;0.40;0.40;;;;;;;;;;5039699;28;20524;-67
2021/05/12 01:33:53;;;;;;;0.10;0.10;;;;;;;;;;5021700;28;20210;-67
2021/05/12 01:36:21;;;;;;;0.23;0.23;;;;;;;;;;5018936;28;20338;-67
2021/05/12 01:38:49;;;;;;;0.00;0.00;;;;;;;;;;5035234;28;20217;-65
2021/05/12 01:41:19;;;;;;;0.00;0.00;;;;;;;;;;5017953;28;20965;-67
2021/05/12 01:43:47;;;;;;;10.80;0.60;;;;;;;;;;5021171;28;20187;-67
2021/05/12 01:46:14;;;;;;;0.00;0.00;;;;;;;;;;5031679;28;20304;-68
2021/05/12 01:48:42;;;;;;;0.00;0.00;;;;;;;;;;5042484;28;20597;-69
2021/05/12 01:51:11;;;;;;;0.30;0.30;;;;;;;;;;5033916;28;20190;-70
2021/05/12 01:53:42;;;;;;;0.13;0.13;;;;;;;;;;5034954;28;20195;-68
2021/05/12 01:56:10;;;;;;;0.37;0.10;;;;;;;;;;5034205;28;20223;-67
2021/05/12 01:58:40;;;;;;;0.37;0.37;;;;;;;;;;5032056;28;20196;-72
2021/05/12 02:01:07;;;;;;;0.33;0.17;;;;;;;;;;5033506;28;20178;-72
2021/05/12 02:03:35;;;;;;;0.23;0.13;;;;;;;;;;5026503;28;20182;-72
2021/05/12 02:06:03;;;;;;;0.20;0.20;;;;;;;;;;5035634;28;20633;-74
2021/05/12 02:08:31;;;;;;;0.00;0.00;;;;;;;;;;5037837;28;20189;-74
2021/05/12 02:11:01;;;;;;;0.47;0.10;;;;;;;;;;5031280;28;20199;-72
2021/05/12 02:13:30;;;;;;;0.00;0.00;;;;;;;;;;5030624;28;20208;-74
2021/05/12 02:15:59;;;;;;;0.00;0.00;;;;;;;;;;5033685;28;20532;-75
2021/05/12 02:18:26;;;;;;;0.00;0.00;;;;;;;;;;5043103;28;20328;-74
2021/05/12 02:20:54;;;;;;;0.20;0.20;;;;;;;;;;5036929;28;20571;-74
2021/05/12 02:23:22;;;;;;;0.50;0.50;;;;;;;;;;5018974;28;20199;-75
2021/05/12 02:25:50;;;;;;;0.20;0.00;;;;;;;;;;5031993;28;20256;-74
2021/05/12 02:28:17;;;;;;;0.10;0.10;;;;;;;;;;5035882;28;20239;-72
2021/05/12 02:30:45;;;;;;;8.20;0.83;;;;;;;;;;5033041;28;20279;-70
2021/05/12 13:15:39;;;;;;;6.13;0.50;;;;;;;;;;5053661;28;20591;-59
2021/05/12 13:18:07;;;;;;;6.27;2.07;;;;;;;;;;5053506;28;20194;-59
2021/05/12 13:20:34;;;;;;;3.20;0.97;;;;;;;;;;5055410;28;20180;-59
2021/05/12 13:23:02;;;;;;;0.30;0.30;;;;;;;;;;5053591;28;20245;-60
2021/05/12 13:25:30;;;;;;;0.30;0.30;;;;;;;;;;5050764;28;20186;-59
2021/05/12 13:27:57;;;;;;;0.67;0.30;;;;;;;;;;5050444;28;20241;-59
2021/05/12 13:30:23;;;;;;;0.43;0.30;;;;;;;;;;5049966;28;20265;-59
2021/05/12 13:32:50;;;;;;;3.13;0.70;;;;;;;;;;5054170;28;21067;-60
2021/05/12 13:35:17;;;;;;;0.60;0.60;;;;;;;;;;5051581;28;20213;-61
2021/05/12 13:37:47;;;;;;;0.73;0.20;;;;;;;;;;5053525;28;20238;-59
2021/05/12 13:40:14;;;;;;;0.63;0.63;;;;;;;;;;5050766;28;20192;-59
2021/05/12 13:42:41;;;;;;;1.93;0.63;;;;;;;;;;5049358;28;21015;-59
2021/05/12 13:45:10;;;;;;;0.43;0.43;;;;;;;;;;5053945;28;20305;-59
2021/05/12 13:47:37;;;;;;;6.40;1.80;;;;;;;;;;5051519;28;20198;-60
2021/05/12 13:50:05;;;;;;;0.10;0.10;;;;;;;;;;5051460;28;20191;-59
2021/05/12 13:52:50;;;;;;;1.43;0.73;;;;;;;;;;5053763;28;20187;-60
2021/05/12 13:59:01;;;;;;;1.33;1.03;;;;;;;;;;5045802;28;20190;-60
2021/05/12 14:03:44;;;;;;;2.50;1.80;;;;;;;;;;5052491;28;20890;-59
2021/05/12 14:06:20;;;;;;;0.60;0.30;;;;;;;;;;5054771;28;20199;-60
2021/05/12 14:08:50;;;;;;;2.80;1.50;;;;;;;;;;5051438;28;20233;-60
2021/05/12 14:11:17;;;;;;;6.10;0.77;;;;;;;;;;5049899;28;20178;-60
2021/05/12 14:13:44;;;;;;;0.07;0.07;;;;;;;;;;5052717;28;20312;-59
2021/05/12 14:16:22;;;;;;;2.53;0.67;;;;;;;;;;5051665;28;20967;-59
2021/05/12 14:18:48;;;;;;;8.10;2.67;;;;;;;;;;5046160;28;20553;-59
2021/05/12 14:21:15;;;;;;;0.00;0.00;;;;;;;;;;5047568;28;20195;-60
2021/05/12 14:23:42;;;;;;;0.67;0.57;;;;;;;;;;5052454;28;20195;-60
2021/05/12 14:26:09;;;;;;;0.93;0.77;;;;;;;;;;5043878;28;20266;-60
2021/05/12 14:28:40;;;;;;;0.20;0.20;;;;;;;;;;5039182;28;20209;-59
2021/05/12 14:31:11;;;;;;;0.73;0.57;;;;;;;;;;5040950;28;20200;-59
2021/05/12 14:33:37;;;;;;;0.00;0.00;;;;;;;;;;5034025;28;21410;-60
2021/05/12 14:36:04;;;;;;;0.43;0.43;;;;;;;;;;5039210;28;20189;-60
2021/05/12 14:38:32;;;;;;;13.10;3.57;;;;;;;;;;5038455;28;20438;-59
2021/05/12 14:40:58;;;;;;;0.10;0.10;;;;;;;;;;5037039;28;20186;-59
2021/05/12 14:43:25;;;;;;;1.93;0.57;;;;;;;;;;5038750;28;20189;-59
2021/05/12 14:45:52;;;;;;;1.23;0.40;;;;;;;;;;5037896;28;20497;-59
2021/05/12 14:48:26;;;;;;;0.77;0.00;;;;;;;;;;5040255;28;20180;-59
2021/05/12 14:50:55;;;;;;;5.07;1.67;;;;;;;;;;5033672;28;20172;-59
2021/05/12 14:53:26;;;;;;;0.37;0.30;;;;;;;;;;5038240;28;20204;-60
2021/05/12 15:04:04;;;;;;;0.00;0.00;;;;;;;;;;5037742;28;20956;-59
2021/05/12 15:06:46;;;;;;;0.30;0.30;;;;;;;;;;5033302;28;20215;-59
2021/05/12 15:09:13;;;;;;;2.53;0.83;;;;;;;;;;5045907;28;20171;-59
2021/05/12 15:11:40;;;;;;;0.30;0.30;;;;;;;;;;5037674;28;20202;-60
2021/05/12 15:14:07;;;;;;;0.20;0.20;;;;;;;;;;5038174;28;20227;-59
2021/05/12 15:16:34;;;;;;;0.10;0.10;;;;;;;;;;5034799;28;20188;-59
2021/05/12 15:19:00;;;;;;;1.30;1.20;;;;;;;;;;5036183;28;20599;-59
2021/05/12 15:21:36;;;;;;;11.13;0.53;;;;;;;;;;5036911;28;20196;-60
2021/05/12 15:24:03;;;;;;;0.40;0.40;;;;;;;;;;5035025;28;20184;-59
2021/05/12 15:26:30;;;;;;;0.40;0.40;;;;;;;;;;5033071;28;20318;-59
2021/05/12 15:28:56;;;;;;;1.80;0.30;;;;;;;;;;5030293;28;20267;-60
2021/05/12 15:31:23;;;;;;;1.90;0.57;;;;;;;;;;5034343;28;20870;-59
2021/05/12 15:33:52;;;;;;;0.20;0.10;;;;;;;;;;5033883;28;20194;-60
2021/05/12 15:36:19;;;;;;;0.53;0.53;;;;;;;;;;5038301;28;20225;-59
2021/05/12 15:38:46;;;;;;;0.07;0.07;;;;;;;;;;5037670;28;20242;-59
2021/05/12 15:41:12;;;;;;;0.57;0.10;;;;;;;;;;5031442;28;20265;-59
2021/05/12 15:43:39;;;;;;;0.23;0.23;;;;;;;;;;5034866;28;20616;-60
2021/05/12 15:46:06;;;;;;;0.87;0.30;;;;;;;;;;5035620;28;20183;-59
2021/05/12 15:48:33;;;;;;;0.00;0.00;;;;;;;;;;5037375;28;20184;-59
2021/05/12 15:50:59;;;;;;;0.73;0.73;;;;;;;;;;5037190;28;20189;-59
2021/05/12 15:53:26;;;;;;;0.00;0.00;;;;;;;;;;5037499;28;20282;-59
2021/05/12 15:55:53;;;;;;;0.47;0.43;;;;;;;;;;5030574;28;20300;-59
2021/05/12 15:58:20;;;;;;;1.30;0.67;;;;;;;;;;5039753;28;20189;-59
2021/05/12 16:00:47;;;;;;;2.80;1.77;;;;;;;;;;5032598;28;20937;-59
2021/05/12 16:03:13;;;;;;;0.00;0.00;;;;;;;;;;5030057;28;20266;-59
2021/05/12 16:05:40;;;;;;;4.30;0.30;;;;;;;;;;5026316;28;20821;-59
2021/05/12 16:08:06;;;;;;;1.33;0.67;;;;;;;;;;5030140;28;20203;-60
2021/05/12 16:10:35;;;;;;;4.73;0.43;;;;;;;;;;5034990;28;20189;-59
2021/05/12 16:13:02;;;;;;;1.13;0.37;;;;;;;;;;5033681;28;20193;-59
2021/05/12 16:15:29;;;;;;;1.03;0.37;;;;;;;;;;5027738;28;20236;-59
2021/05/12 16:17:55;;;;;;;0.07;0.07;;;;;;;;;;5023855;28;20700;-60
2021/05/12 16:20:22;;;;;;;0.33;0.30;;;;;;;;;;5035182;28;20176;-59
2021/05/12 16:22:49;;;;;;;0.07;0.07;;;;;;;;;;5035762;28;20193;-60
2021/05/12 16:25:16;;;;;;;5.20;1.00;;;;;;;;;;5038925;28;20274;-59
2021/05/12 16:27:43;;;;;;;13.20;2.00;;;;;;;;;;5029474;28;21036;-59
2021/05/12 16:30:10;;;;;;;2.00;0.60;;;;;;;;;;5038123;28;20238;-59
2021/05/12 16:32:37;;;;;;;2.23;0.50;;;;;;;;;;5033998;28;20800;-58
2021/05/12 16:35:06;;;;;;;0.10;0.10;;;;;;;;;;5032644;28;20209;-59
2021/05/12 16:37:36;;;;;;;1.20;0.37;;;;;;;;;;5044127;28;20210;-59
2021/05/12 16:40:04;;;;;;;1.90;0.37;;;;;;;;;;5037273;28;20200;-59
2021/05/12 16:42:31;;;;;;;0.00;0.00;;;;;;;;;;5039062;28;21041;-59
2021/05/12 16:44:57;;;;;;;0.10;0.10;;;;;;;;;;5035019;28;20857;-60
2021/05/12 16:47:24;;;;;;;0.00;0.00;;;;;;;;;;5035944;28;20195;-60
2021/05/12 16:49:50;;;;;;;2.17;0.37;;;;;;;;;;5036342;28;20592;-59
2021/05/12 16:52:19;;;;;;;0.17;0.17;;;;;;;;;;5041956;28;20917;-59
2021/05/12 16:54:45;;;;;;;2.40;0.60;;;;;;;;;;5036440;28;20216;-59
2021/05/12 16:57:12;;;;;;;0.00;0.00;;;;;;;;;;5031129;28;21015;-60
2021/05/12 16:59:39;;;;;;;0.40;0.30;;;;;;;;;;5037776;28;20209;-59
2021/05/12 17:02:06;;;;;;;0.00;0.00;;;;;;;;;;5033197;28;20504;-60
2021/05/12 17:04:32;;;;;;;6.70;1.13;;;;;;;;;;5033922;28;20279;-59
2021/05/12 17:07:00;;;;;;;0.00;0.00;;;;;;;;;;5035162;28;20608;-59
2021/05/12 17:09:31;;;;;;;0.53;0.10;;;;;;;;;;5049844;28;20289;-59
2021/05/12 17:12:31;;;;;;;0.40;0.40;;;;;;;;;;5035568;28;20199;-60
2021/05/12 17:14:50;;;;;;;0.40;0.40;;;;;;;;;;5033954;28;20237;-59
2021/05/12 17:17:18;;;;;;;4.37;0.57;;;;;;;;;;5028343;28;20194;-60
2021/05/12 17:19:44;;;;;;;0.00;0.00;;;;;;;;;;5029347;28;20185;-59
2021/05/12 17:22:12;;;;;;;1.77;0.13;;;;;;;;;;5029582;28;20184;-59
2021/05/12 17:24:38;;;;;;;0.50;0.40;;;;;;;;;;5039739;28;20190;-60
2021/05/12 17:27:07;;;;;;;0.40;0.40;;;;;;;;;;5037435;28;20682;-59
2021/05/12 17:29:34;;;;;;;2.37;0.73;;;;;;;;;;5037746;28;20201;-59
2021/05/12 17:32:00;;;;;;;0.00;0.00;;;;;;;;;;5036854;28;20685;-60
2021/05/12 17:34:27;;;;;;;0.00;0.00;;;;;;;;;;5029139;28;20436;-60
2021/05/12 17:36:53;;;;;;;2.30;0.50;;;;;;;;;;5029779;28;20194;-59
2021/05/12 17:39:20;;;;;;;0.07;0.07;;;;;;;;;;5032279;28;20662;-59
2021/05/12 17:41:47;;;;;;;0.07;0.07;;;;;;;;;;5033824;28;20342;-59
2021/05/12 17:44:14;;;;;;;0.60;0.20;;;;;;;;;;5026760;28;20220;-59
2021/05/12 17:46:40;;;;;;;1.50;1.13;;;;;;;;;;5029626;28;20626;-59
2021/05/12 17:49:07;;;;;;;0.43;0.27;;;;;;;;;;5028434;28;20302;-59
2021/05/12 17:51:35;;;;;;;0.77;0.27;;;;;;;;;;5033858;28;20223;-58
2021/05/12 17:54:01;;;;;;;0.40;0.40;;;;;;;;;;5031172;28;20218;-59
2021/05/12 17:56:28;;;;;;;0.87;0.70;;;;;;;;;;5023583;28;20403;-59
2021/05/12 17:58:56;;;;;;;0.93;0.53;;;;;;;;;;5026336;28;20181;-59
2021/05/12 18:01:23;;;;;;;2.77;2.53;;;;;;;;;;5029966;28;20184;-59
2021/05/12 18:03:52;;;;;;;6.77;0.30;;;;;;;;;;5035803;28;20186;-59
2021/05/12 18:06:18;;;;;;;1.23;0.10;;;;;;;;;;5036992;28;20722;-59
2021/05/12 18:08:47;;;;;;;2.57;0.63;;;;;;;;;;5031565;28;20192;-59
2021/05/12 18:11:33;;;;;;;0.03;0.03;;;;;;;;;;5032533;28;20213;-59
2021/05/12 18:19:33;;;;;;;2.93;0.60;;;;;;;;;;5037023;28;20200;-59
2021/05/12 18:21:59;;;;;;;4.13;2.47;;;;;;;;;;5034268;28;20201;-61
2021/05/12 18:24:26;;;;;;;0.20;0.20;;;;;;;;;;5031010;28;20189;-59
2021/05/12 18:26:53;;;;;;;0.40;0.30;;;;;;;;;;5038316;28;20190;-59
2021/05/12 18:29:19;;;;;;;0.17;0.17;;;;;;;;;;5030646;28;20252;-59
2021/05/12 18:31:46;;;;;;;0.00;0.00;;;;;;;;;;5031044;28;20945;-59
2021/05/12 18:34:16;;;;;;;1.13;0.50;;;;;;;;;;5039330;28;20209;-59
2021/05/12 18:36:44;;;;;;;0.20;0.13;;;;;;;;;;5037917;28;20190;-60
2021/05/12 18:41:46;;;;;;;0.67;0.60;;;;;;;;;;5039740;28;20193;-59
2021/05/12 18:44:17;;;;;;;0.10;0.10;;;;;;;;;;5037728;28;20621;-60
2021/05/12 18:46:47;;;;;;;0.70;0.10;;;;;;;;;;5039662;28;21069;-60
2021/05/12 18:49:13;;;;;;;0.67;0.20;;;;;;;;;;5031160;28;20198;-59
2021/05/12 18:51:40;;;;;;;0.67;0.50;;;;;;;;;;5036053;28;20218;-59
2021/05/12 18:54:07;;;;;;;0.70;0.70;;;;;;;;;;5039615;28;20208;-59
2021/05/12 18:56:34;;;;;;;0.70;0.33;;;;;;;;;;5007864;23;23921;-65
2021/05/12 18:59:01;;;;;;;0.30;0.10;;;;;;;;;;5016923;28;20275;-65
2021/05/12 19:01:27;;;;;;;0.10;0.10;;;;;;;;;;5020593;28;20192;-65
2021/05/12 19:03:54;;;;;;;0.10;0.10;;;;;;;;;;5018601;28;21015;-65
2021/05/12 19:08:55;;;;;;;0.00;0.00;;;;;;;;;;5018947;28;20184;-65
2021/05/12 19:11:45;;;;;;;0.00;0.00;;;;;;;;;;5018098;28;20613;-65
2021/05/12 19:14:19;;;;;;;1.13;0.33;;;;;;;;;;5000159;28;20227;-66
2021/05/12 19:16:48;;;;;;;0.00;0.00;;;;;;;;;;5027891;28;20197;-65
2021/05/12 19:19:30;;;;;;;1.03;0.30;;;;;;;;;;5024374;28;20556;-65
2021/05/12 19:25:06;;;;;;;0.10;0.10;;;;;;;;;;5017068;28;20541;-65
2021/05/12 19:27:22;;;;;;;0.67;0.67;;;;;;;;;;5019577;28;20207;-65
2021/05/12 19:30:06;;;;;;;0.00;0.00;;;;;;;;;;5022009;28;20607;-66
2021/05/12 19:41:02;;;;;;;0.00;0.00;;;;;;;;;;5020312;28;20192;-64
2021/05/12 19:43:29;;;;;;;3.53;0.50;;;;;;;;;;5019253;28;20191;-65
2021/05/12 19:45:55;;;;;;;2.53;1.83;;;;;;;;;;5015162;28;20172;-64
2021/05/12 19:48:22;;;;;;;0.00;0.00;;;;;;;;;;5017299;28;20894;-64
2021/05/12 19:50:49;;;;;;;2.33;0.30;;;;;;;;;;5017707;28;20181;-65
2021/05/12 19:53:15;;;;;;;0.00;0.00;;;;;;;;;;5013356;28;20191;-64
2021/05/12 19:55:57;;;;;;;0.47;0.23;;;;;;;;;;5017784;28;20583;-65
2021/05/12 19:58:24;;;;;;;0.13;0.13;;;;;;;;;;5013716;28;20725;-65
2021/05/12 20:00:52;;;;;;;0.03;0.03;;;;;;;;;;5014711;28;20513;-64
2021/05/12 20:03:21;;;;;;;0.40;0.30;;;;;;;;;;5017298;28;20511;-64
2021/05/12 20:08:55;;;;;;;0.00;0.00;;;;;;;;;;5009842;28;20954;-64
2021/05/12 20:14:08;;;;;;;0.00;0.00;;;;;;;;;;5015753;28;20767;-64
2021/05/12 20:16:35;;;;;;;0.00;0.00;;;;;;;;;;5014992;28;20185;-64
2021/05/12 20:19:02;;;;;;;1.70;0.30;;;;;;;;;;5016569;28;20204;-64
2021/05/12 20:21:29;;;;;;;0.60;0.60;;;;;;;;;;5015939;28;20187;-64
2021/05/12 20:23:55;;;;;;;0.53;0.40;;;;;;;;;;5014111;28;20199;-64
2021/05/12 20:26:22;;;;;;;2.57;0.67;;;;;;;;;;5018831;28;20815;-65
2021/05/12 20:28:48;;;;;;;5.47;0.47;;;;;;;;;;5016434;28;20188;-65
2021/05/12 20:31:16;;;;;;;0.00;0.00;;;;;;;;;;5017809;28;20188;-65
2021/05/12 20:39:16;;;;;;;1.00;0.70;;;;;;;;;;5018087;28;20273;-65
2021/05/12 20:41:43;;;;;;;0.83;0.37;;;;;;;;;;5018259;28;20199;-65
2021/05/12 20:44:10;;;;;;;4.10;1.60;;;;;;;;;;5015982;28;20193;-64
2021/05/12 20:46:36;;;;;;;0.00;0.00;;;;;;;;;;5011911;28;20229;-65
2021/05/12 20:49:03;;;;;;;0.00;0.00;;;;;;;;;;5028610;28;20287;-65
2021/05/12 20:51:30;;;;;;;1.30;0.30;;;;;;;;;;5019574;28;20189;-65
2021/05/12 20:53:57;;;;;;;0.60;0.60;;;;;;;;;;5023429;28;20653;-65
2021/05/12 20:56:23;;;;;;;2.00;0.90;;;;;;;;;;5016803;28;20216;-65
2021/05/12 20:58:50;;;;;;;2.43;0.47;;;;;;;;;;5018410;28;20184;-65
2021/05/12 21:01:17;;;;;;;0.40;0.10;;;;;;;;;;5018300;28;20732;-65
2021/05/12 21:03:43;;;;;;;0.97;0.30;;;;;;;;;;5018320;28;20188;-65
2021/05/12 21:06:11;;;;;;;0.50;0.40;;;;;;;;;;5017958;28;20743;-65
2021/05/12 21:08:38;;;;;;;2.27;0.23;;;;;;;;;;5018038;28;20192;-66
2021/05/12 21:11:06;;;;;;;0.10;0.10;;;;;;;;;;5022146;28;20190;-66
2021/05/12 21:13:33;;;;;;;0.40;0.20;;;;;;;;;;5015406;28;20195;-66
2021/05/12 21:16:02;;;;;;;0.00;0.00;;;;;;;;;;5016101;28;20195;-66
2021/05/12 21:18:28;;;;;;;0.00;0.00;;;;;;;;;;5018599;28;20210;-66
2021/05/12 21:21:06;;;;;;;0.00;0.00;;;;;;;;;;5018810;28;20889;-66
2021/05/12 21:23:37;;;;;;;3.90;0.33;;;;;;;;;;5019125;28;21117;-66
2021/05/12 21:26:04;;;;;;;3.93;0.23;;;;;;;;;;5016497;28;20187;-66
2021/05/12 21:28:31;;;;;;;0.00;0.00;;;;;;;;;;5027147;28;20237;-66
2021/05/12 21:31:03;;;;;;;2.77;1.93;;;;;;;;;;5024062;28;20307;-65
2021/05/12 21:33:34;;;;;;;1.43;0.50;;;;;;;;;;5015778;28;20254;-65
2021/05/12 21:36:02;;;;;;;1.40;0.73;;;;;;;;;;5017622;28;20775;-65
2021/05/12 21:38:29;;;;;;;5.67;0.70;;;;;;;;;;5025942;28;20184;-65
2021/05/12 21:40:56;;;;;;;6.23;0.40;;;;;;;;;;5024060;28;20226;-66
2021/05/12 21:43:23;;;;;;;2.53;1.03;;;;;;;;;;5019550;28;20215;-66
2021/05/12 21:45:51;;;;;;;0.00;0.00;;;;;;;;;;5018954;28;21006;-65
2021/05/12 21:48:18;;;;;;;0.10;0.10;;;;;;;;;;5023443;28;20261;-65
2021/05/12 21:50:46;;;;;;;0.00;0.00;;;;;;;;;;5020613;28;20960;-65
2021/05/12 21:53:13;;;;;;;0.20;0.20;;;;;;;;;;5023875;28;20640;-64
2021/05/12 21:55:41;;;;;;;0.23;0.23;;;;;;;;;;5020394;28;20239;-65
2021/05/12 21:58:08;;;;;;;0.00;0.00;;;;;;;;;;5020716;28;20270;-64
2021/05/12 22:00:41;;;;;;;4.23;1.13;;;;;;;;;;5020907;28;20258;-64
2021/05/12 22:03:31;;;;;;;6.07;0.93;;;;;;;;;;5019668;28;20737;-65
2021/05/12 22:25:06;;;;;;;0.00;0.00;;;;;;;;;;5024840;28;20265;-65
2021/05/12 22:27:45;;;;;;;0.00;0.00;;;;;;;;;;5019502;28;20191;-65
2021/05/12 22:30:14;;;;;;;0.00;0.00;;;;;;;;;;5020433;28;20176;-65
2021/05/12 22:32:51;;;;;;;0.13;0.13;;;;;;;;;;5013747;28;20188;-65
2021/05/12 22:35:19;;;;;;;0.07;0.07;;;;;;;;;;5019988;28;20293;-65
2021/05/12 22:37:46;;;;;;;0.23;0.23;;;;;;;;;;5018560;28;20352;-65
2021/05/12 22:40:14;;;;;;;0.00;0.00;;;;;;;;;;5019550;28;20188;-65
2021/05/12 22:42:42;;;;;;;0.00;0.00;;;;;;;;;;5018637;28;20257;-65
2021/05/12 22:45:09;;;;;;;0.10;0.03;;;;;;;;;;5019937;28;20219;-66
2021/05/12 22:47:36;;;;;;;0.00;0.00;;;;;;;;;;5010012;28;20183;-64
2021/05/12 22:50:08;;;;;;;0.00;0.00;;;;;;;;;;5020451;28;21011;-65
2021/05/12 22:52:35;;;;;;;0.03;0.03;;;;;;;;;;5018183;28;20184;-64
2021/05/12 22:55:17;;;;;;;0.40;0.40;;;;;;;;;;5018559;28;20204;-64
2021/05/12 22:57:44;;;;;;;0.10;0.10;;;;;;;;;;5019596;28;20448;-64
2021/05/12 23:00:12;;;;;;;0.40;0.40;;;;;;;;;;5018759;28;20256;-64
2021/05/12 23:02:39;;;;;;;0.40;0.40;;;;;;;;;;5010359;28;20180;-64
2021/05/12 23:05:07;;;;;;;0.00;0.00;;;;;;;;;;5016600;28;20699;-64
2021/05/12 23:07:33;;;;;;;0.60;0.50;;;;;;;;;;5016756;28;20203;-65
2021/05/12 23:10:00;;;;;;;1.03;0.20;;;;;;;;;;5021404;28;20189;-65
2021/05/12 23:12:27;;;;;;;0.60;0.47;;;;;;;;;;5018548;28;20202;-64
2021/05/12 23:14:53;;;;;;;0.30;0.30;;;;;;;;;;5021429;28;20286;-65
2021/05/12 23:17:22;;;;;;;0.57;0.57;;;;;;;;;;5018708;28;20180;-65
2021/05/12 23:19:52;;;;;;;0.17;0.17;;;;;;;;;;5015505;28;20473;-65
2021/05/12 23:22:23;;;;;;;0.27;0.27;;;;;;;;;;5018006;28;20331;-65
2021/05/12 23:24:51;;;;;;;2.37;1.03;;;;;;;;;;5015125;28;20189;-64
2021/05/12 23:27:19;;;;;;;2.23;1.13;;;;;;;;;;5018864;28;20177;-65
2021/05/12 23:29:45;;;;;;;1.77;0.77;;;;;;;;;;5017863;28;20192;-66
2021/05/12 23:32:12;;;;;;;4.40;0.83;;;;;;;;;;5012896;28;20204;-65
2021/05/12 23:34:40;;;;;;;1.20;0.30;;;;;;;;;;5018132;28;20562;-65
2021/05/12 23:37:08;;;;;;;2.23;0.53;;;;;;;;;;5017340;28;20634;-66
2021/05/12 23:39:39;;;;;;;1.27;1.13;;;;;;;;;;5019115;28;20211;-65
2021/05/12 23:42:08;;;;;;;0.47;0.47;;;;;;;;;;5018279;28;20290;-66
2021/05/12 23:44:35;;;;;;;0.00;0.00;;;;;;;;;;5017545;28;20180;-66
2021/05/12 23:47:02;;;;;;;8.63;4.97;;;;;;;;;;5017435;28;20190;-66
2021/05/12 23:49:29;;;;;;;0.00;0.00;;;;;;;;;;5018439;28;20187;-66
2021/05/12 23:51:59;;;;;;;1.07;0.10;;;;;;;;;;5017417;28;20184;-66
2021/05/12 23:54:31;;;;;;;0.00;0.00;;;;;;;;;;5016675;28;20251;-66
2021/05/12 23:56:59;;;;;;;0.30;0.20;;;;;;;;;;5017836;28;20227;-65
2021/05/12 23:59:27;;;;;;;0.00;0.00;;;;;;;;;;5016484;28;20200;-66
